Time;durP1;ratioP1;P1;durP2;ratioP2;P2;SDS_P1;SDS_P2;PMS_P1;PMS_P2;Temp;Humidity;BMP_temperature;BMP_pressure;BME280_temperature;BME280_humidity;BME280_pressure;Samples;Min_cycle;Max_cycle;Signal;HPM_P1;HPM_P2
2023/08/31 00:02:09;;;;;;;9.30;6.93;;;;;;;-145.48;100.00;64539.38;5967238;29;20042;-89
2023/08/31 00:05:11;;;;;;;10.25;7.22;;;;;;;-145.48;100.00;64539.38;5981127;29;20038;-89
2023/08/31 00:08:12;;;;;;;9.77;6.65;;;;;;;-145.48;100.00;64539.38;5964166;29;20565;-90
2023/08/31 00:11:14;;;;;;;9.15;6.35;;;;;;;-145.48;100.00;64539.38;5973674;29;20592;-90
2023/08/31 00:14:17;;;;;;;9.15;6.53;;;;;;;-145.48;100.00;64539.38;5979822;29;20157;-90
2023/08/31 00:17:18;;;;;;;10.13;6.38;;;;;;;-145.48;100.00;64539.38;5980720;29;20042;-90
2023/08/31 00:20:21;;;;;;;9.30;6.93;;;;;;;-145.48;100.00;64539.38;5977349;29;20042;-90
2023/08/31 00:23:23;;;;;;;9.52;6.53;;;;;;;-145.48;100.00;64539.38;5982037;29;20668;-90
2023/08/31 00:26:25;;;;;;;9.00;6.25;;;;;;;-145.48;100.00;64539.38;5985318;29;20057;-90
2023/08/31 00:29:27;;;;;;;12.45;6.57;;;;;;;-145.48;100.00;64539.38;5980320;29;20078;-90
2023/08/31 00:32:30;;;;;;;10.75;6.80;;;;;;;-145.48;100.00;64539.38;5982840;29;20506;-89
2023/08/31 00:35:33;;;;;;;13.10;6.68;;;;;;;-145.48;100.00;64539.38;5988788;29;20050;-90
2023/08/31 00:38:35;;;;;;;8.13;6.57;;;;;;;-145.48;100.00;64539.38;5981729;29;20049;-90
2023/08/31 00:41:37;;;;;;;12.57;7.25;;;;;;;-145.48;100.00;64539.38;5978925;29;20050;-92
2023/08/31 00:44:40;;;;;;;11.75;6.40;;;;;;;-145.48;100.00;64539.38;5965616;29;20425;-89
2023/08/31 00:47:42;;;;;;;11.95;6.95;;;;;;;-145.48;100.00;64539.38;5974578;29;20053;-89
2023/08/31 00:50:45;;;;;;;10.52;6.78;;;;;;;-145.48;100.00;64539.38;5975154;29;20061;-89
2023/08/31 00:53:48;;;;;;;10.75;7.20;;;;;;;-145.48;100.00;64539.38;5973300;29;20422;-89
2023/08/31 00:56:57;;;;;;;13.07;7.63;;;;;;;-145.48;100.00;64539.38;5979142;29;20446;-89
2023/08/31 00:59:58;;;;;;;9.00;6.40;;;;;;;-145.48;100.00;64539.38;5978075;29;20054;-89
2023/08/31 01:03:18;;;;;;;11.10;7.43;;;;;;;-145.48;100.00;64539.38;5969667;29;20050;-89
2023/08/31 01:06:26;;;;;;;11.43;7.55;;;;;;;-145.48;100.00;64539.38;5979225;29;20046;-89
2023/08/31 01:10:06;;;;;;;11.80;7.68;;;;;;;-145.48;100.00;64539.38;5993388;29;20489;-90
2023/08/31 01:13:13;;;;;;;10.55;7.00;;;;;;;-145.48;100.00;64539.38;5951563;29;20058;-89
2023/08/31 01:16:16;;;;;;;8.25;7.38;;;;;;;-145.48;100.00;64539.38;5974411;29;20061;-90
2023/08/31 01:19:50;;;;;;;10.80;7.80;;;;;;;-145.48;100.00;64539.38;5971883;29;20679;-90
2023/08/31 01:23:01;;;;;;;11.65;7.60;;;;;;;-145.48;100.00;64539.38;5965422;29;20054;-89
2023/08/31 01:26:02;;;;;;;;;;;;;;;-145.48;100.00;64539.38;5979331;29;20057;-89
2023/08/31 01:29:04;;;;;;;12.50;8.10;;;;;;;-145.48;100.00;64539.38;5972779;29;19940;-90
2023/08/31 01:32:07;;;;;;;12.93;7.57;;;;;;;-145.48;100.00;64539.38;5975479;29;20738;-89
2023/08/31 01:35:09;;;;;;;12.48;7.90;;;;;;;-145.48;100.00;64539.38;5974677;29;20041;-89
2023/08/31 01:38:17;;;;;;;20.50;8.70;;;;;;;-145.48;100.00;64539.38;5978407;29;20042;-89
2023/08/31 01:41:22;;;;;;;12.52;7.68;;;;;;;-145.48;100.00;64539.38;5983325;29;20054;-90
2023/08/31 01:44:26;;;;;;;14.00;8.13;;;;;;;-145.48;100.00;64539.38;5988169;29;20054;-89
2023/08/31 01:47:28;;;;;;;10.88;7.90;;;;;;;-145.48;100.00;64539.38;5964641;29;20064;-90
2023/08/31 01:50:30;;;;;;;15.65;7.93;;;;;;;-145.48;100.00;64539.38;5979660;29;20055;-89
2023/08/31 01:53:31;;;;;;;12.52;7.63;;;;;;;-145.48;100.00;64539.38;5981050;29;20072;-89
2023/08/31 01:56:33;;;;;;;12.60;7.70;;;;;;;-145.48;100.00;64539.38;5979162;29;20561;-90
2023/08/31 01:59:36;;;;;;;10.30;7.22;;;;;;;-145.48;100.00;64539.38;5980735;29;20053;-89
2023/08/31 02:02:37;;;;;;;10.63;7.13;;;;;;;-145.48;100.00;64539.38;5978323;29;20071;-89
2023/08/31 02:05:39;;;;;;;12.68;8.77;;;;;;;-145.48;100.00;64539.38;5975053;29;20132;-89
2023/08/31 02:08:43;;;;;;;13.55;7.28;;;;;;;-145.48;100.00;64539.38;5958151;29;20074;-90
2023/08/31 02:11:45;;;;;;;16.38;8.02;;;;;;;-145.48;100.00;64539.38;5979812;29;20050;-89
2023/08/31 02:14:49;;;;;;;12.65;7.75;;;;;;;-145.48;100.00;64539.38;5975459;29;20500;-89
2023/08/31 02:17:51;;;;;;;13.30;7.72;;;;;;;-145.48;100.00;64539.38;5965717;29;20069;-89
2023/08/31 02:20:53;;;;;;;11.38;7.57;;;;;;;-145.48;100.00;64539.38;5975893;29;20394;-89
2023/08/31 02:23:55;;;;;;;13.18;7.95;;;;;;;-145.48;100.00;64539.38;5972676;29;20058;-89
2023/08/31 02:26:57;;;;;;;11.85;7.53;;;;;;;-145.48;100.00;64539.38;5963713;29;20098;-89
2023/08/31 02:30:02;;;;;;;12.50;7.30;;;;;;;-145.48;100.00;64539.38;5967540;29;20053;-90
2023/08/31 02:33:04;;;;;;;10.77;7.45;;;;;;;-145.48;100.00;64539.38;5967124;29;20046;-89
2023/08/31 02:36:06;;;;;;;10.40;6.68;;;;;;;-145.48;100.00;64539.38;5964940;29;20088;-89
2023/08/31 02:39:09;;;;;;;13.68;7.20;;;;;;;-145.48;100.00;64539.38;5959207;29;20051;-89
2023/08/31 02:42:11;;;;;;;9.68;7.22;;;;;;;-145.48;100.00;64539.38;5961891;29;20054;-89
2023/08/31 02:45:13;;;;;;;11.80;7.15;;;;;;;-145.48;100.00;64539.38;5969989;29;20846;-89
2023/08/31 02:48:15;;;;;;;11.25;7.43;;;;;;;-145.48;100.00;64539.38;5966028;29;20055;-90
2023/08/31 02:51:16;;;;;;;12.57;7.40;;;;;;;-145.48;100.00;64539.38;5964923;29;20054;-89
2023/08/31 02:54:19;;;;;;;10.35;7.47;;;;;;;-145.48;100.00;64539.38;5978455;29;20347;-90
2023/08/31 02:57:21;;;;;;;8.98;6.60;;;;;;;-145.48;100.00;64539.38;5974692;29;20126;-89
2023/08/31 03:00:23;;;;;;;11.27;7.07;;;;;;;-145.48;100.00;64539.38;5974114;29;20050;-89
2023/08/31 03:03:25;;;;;;;9.55;6.72;;;;;;;-145.48;100.00;64539.38;5960572;29;20510;-89
2023/08/31 03:06:27;;;;;;;10.55;6.57;;;;;;;-145.48;100.00;64539.38;5961613;29;20050;-89
2023/08/31 03:09:29;;;;;;;10.82;7.05;;;;;;;-145.48;100.00;64539.38;5988738;29;20081;-89
2023/08/31 03:12:31;;;;;;;10.00;6.32;;;;;;;-145.48;100.00;64539.38;5973143;29;20410;-89
2023/08/31 03:15:34;;;;;;;8.80;6.30;;;;;;;-145.48;100.00;64539.38;5972778;29;20127;-89
2023/08/31 03:18:36;;;;;;;9.82;6.93;;;;;;;-145.48;100.00;64539.38;5979039;29;20082;-90
2023/08/31 03:21:37;;;;;;;11.18;6.95;;;;;;;-145.48;100.00;64539.38;5960292;29;20053;-89
2023/08/31 03:24:39;;;;;;;11.65;6.15;;;;;;;-145.48;100.00;64539.38;5950043;29;20426;-90
2023/08/31 03:27:41;;;;;;;11.75;6.65;;;;;;;-145.48;100.00;64539.38;5971678;29;20459;-90
2023/08/31 03:30:45;;;;;;;12.45;6.20;;;;;;;-145.48;100.00;64539.38;5979628;29;20436;-89
2023/08/31 03:33:47;;;;;;;8.13;6.03;;;;;;;-145.48;100.00;64539.38;5981280;29;20053;-89
2023/08/31 03:36:50;;;;;;;11.55;6.00;;;;;;;-145.48;100.00;64539.38;5974032;29;20047;-89
2023/08/31 03:39:51;;;;;;;9.20;5.75;;;;;;;-145.48;100.00;64539.38;5973914;29;20050;-89
2023/08/31 03:42:54;;;;;;;9.80;6.03;;;;;;;-145.48;100.00;64539.38;5973974;29;20125;-89
2023/08/31 03:45:59;;;;;;;10.18;6.43;;;;;;;-145.48;100.00;64539.38;5981348;29;20061;-89
2023/08/31 03:49:01;;;;;;;10.60;6.82;;;;;;;-145.48;100.00;64539.38;5971150;29;20042;-89
2023/08/31 03:52:04;;;;;;;10.55;6.53;;;;;;;-145.48;100.00;64539.38;5971900;29;20529;-89
2023/08/31 03:55:06;;;;;;;11.40;6.20;;;;;;;-145.48;100.00;64539.38;5961942;29;20421;-89
2023/08/31 03:58:09;;;;;;;9.30;5.93;;;;;;;-145.48;100.00;64539.38;5980249;29;20042;-90
2023/08/31 04:01:10;;;;;;;9.02;6.32;;;;;;;-145.48;100.00;64539.38;5976893;29;20058;-89
2023/08/31 04:04:12;;;;;;;10.80;6.22;;;;;;;-145.48;100.00;64539.38;5966622;29;20654;-89
2023/08/31 04:07:14;;;;;;;10.00;5.72;;;;;;;-145.48;100.00;64539.38;5981415;29;20050;-89
2023/08/31 04:10:16;;;;;;;14.00;6.35;;;;;;;-145.48;100.00;64539.38;5984560;29;20588;-89
2023/08/31 04:13:18;;;;;;;8.05;5.88;;;;;;;-145.48;100.00;64539.38;5978266;29;20058;-89
2023/08/31 04:16:21;;;;;;;10.05;5.95;;;;;;;-145.48;100.00;64539.38;5983536;29;20517;-89
2023/08/31 04:19:23;;;;;;;8.43;5.72;;;;;;;-145.48;100.00;64539.38;5967483;29;20631;-89
2023/08/31 04:22:26;;;;;;;9.10;5.60;;;;;;;-145.48;100.00;64539.38;5981973;29;20050;-89
2023/08/31 04:25:29;;;;;;;8.85;5.57;;;;;;;-145.48;100.00;64539.38;5980468;29;20053;-89
2023/08/31 04:28:31;;;;;;;6.97;5.25;;;;;;;-145.48;100.00;64539.38;5990384;29;20042;-89
2023/08/31 04:31:33;;;;;;;9.70;5.97;;;;;;;-145.48;100.00;64539.38;5984550;29;20055;-89
2023/08/31 04:34:35;;;;;;;8.38;5.68;;;;;;;-145.48;100.00;64539.38;5984020;29;20409;-89
2023/08/31 04:37:37;;;;;;;7.50;5.38;;;;;;;-145.48;100.00;64539.38;5975208;29;20175;-90
2023/08/31 04:40:39;;;;;;;10.75;6.45;;;;;;;-145.48;100.00;64539.38;5975091;29;20055;-89
2023/08/31 04:43:41;;;;;;;7.97;5.35;;;;;;;-145.48;100.00;64539.38;5985055;29;20054;-90
2023/08/31 04:46:42;;;;;;;10.40;6.47;;;;;;;-145.48;100.00;64539.38;5982836;29;20418;-90
2023/08/31 04:49:44;;;;;;;8.77;6.30;;;;;;;-145.48;100.00;64539.38;5982417;29;20050;-89
2023/08/31 04:52:46;;;;;;;16.35;8.73;;;;;;;-145.48;100.00;64539.38;5983151;29;20045;-89
2023/08/31 04:55:48;;;;;;;12.88;8.43;;;;;;;-145.48;100.00;64539.38;5981480;29;20047;-89
2023/08/31 04:58:50;;;;;;;13.93;9.43;;;;;;;-145.48;100.00;64539.38;5983504;29;20509;-89
2023/08/31 05:01:51;;;;;;;13.45;9.13;;;;;;;-145.48;100.00;64539.38;5981469;29;20073;-90
2023/08/31 05:04:53;;;;;;;12.20;8.88;;;;;;;-145.48;100.00;64539.38;5981260;29;20559;-89
2023/08/31 05:07:55;;;;;;;14.55;9.55;;;;;;;-145.48;100.00;64539.38;5981927;29;20046;-89
2023/08/31 05:10:57;;;;;;;16.98;9.60;;;;;;;-145.48;100.00;64539.38;5990499;29;20065;-89
2023/08/31 05:13:58;;;;;;;11.85;9.10;;;;;;;-145.48;100.00;64539.38;6001412;29;20042;-89
2023/08/31 05:17:00;;;;;;;15.00;9.90;;;;;;;-145.48;100.00;64539.38;5975269;29;20050;-89
2023/08/31 05:20:07;;;;;;;13.82;9.45;;;;;;;-145.48;100.00;64539.38;5982478;29;20054;-89
2023/08/31 05:23:09;;;;;;;15.73;10.60;;;;;;;-145.48;100.00;64539.38;5970161;29;20527;-89
2023/08/31 05:26:11;;;;;;;16.10;11.23;;;;;;;-145.48;100.00;64539.38;5990206;29;20109;-89
2023/08/31 05:29:13;;;;;;;15.23;11.27;;;;;;;-145.48;100.00;64539.38;5984980;29;20042;-89
2023/08/31 05:32:15;;;;;;;18.98;12.07;;;;;;;-145.48;100.00;64539.38;5971957;29;20066;-89
2023/08/31 05:35:17;;;;;;;18.00;13.00;;;;;;;-145.48;100.00;64539.38;5974590;29;20062;-90
2023/08/31 05:38:19;;;;;;;22.02;13.38;;;;;;;-145.48;100.00;64539.38;5981715;29;20056;-88
2023/08/31 05:41:21;;;;;;;19.55;13.60;;;;;;;-145.48;100.00;64539.38;5966730;29;20449;-89
2023/08/31 05:44:24;;;;;;;18.55;13.93;;;;;;;-145.48;100.00;64539.38;5973766;29;20054;-90
2023/08/31 05:47:25;;;;;;;19.75;13.57;;;;;;;-145.48;100.00;64539.38;5981973;29;20394;-90
2023/08/31 05:50:27;;;;;;;18.40;13.88;;;;;;;-145.48;100.00;64539.38;5983491;29;20477;-90
2023/08/31 05:53:36;;;;;;;21.10;14.23;;;;;;;-145.48;100.00;64539.38;5972069;29;20452;-90
2023/08/31 05:56:39;;;;;;;22.50;15.15;;;;;;;-145.48;100.00;64539.38;5974321;29;20059;-90
2023/08/31 05:59:41;;;;;;;20.65;15.45;;;;;;;-145.48;100.00;64539.38;5966922;29;20046;-90
2023/08/31 06:02:49;;;;;;;23.17;16.23;;;;;;;-145.48;100.00;64539.38;5965011;29;20042;-90
2023/08/31 06:05:51;;;;;;;24.13;15.68;;;;;;;-145.48;100.00;64539.38;5981730;29;20045;-90
2023/08/31 06:08:54;;;;;;;20.73;15.38;;;;;;;-145.48;100.00;64539.38;5988005;29;20046;-90
2023/08/31 06:11:56;;;;;;;23.58;15.65;;;;;;;-145.48;100.00;64539.38;5982765;29;20510;-90
2023/08/31 06:14:58;;;;;;;23.45;16.67;;;;;;;-145.48;100.00;64539.38;5974114;29;20561;-90
2023/08/31 06:18:00;;;;;;;24.58;16.40;;;;;;;-145.48;100.00;64539.38;5962424;29;20131;-90
2023/08/31 06:21:02;;;;;;;21.15;14.82;;;;;;;-145.48;100.00;64539.38;5970622;29;20122;-90
2023/08/31 06:24:06;;;;;;;21.17;15.43;;;;;;;-145.48;100.00;64539.38;5981600;29;20058;-90
2023/08/31 06:27:08;;;;;;;23.35;14.45;;;;;;;-145.48;100.00;64539.38;5982106;29;20042;-89
2023/08/31 06:30:15;;;;;;;20.08;15.45;;;;;;;-145.48;100.00;64539.38;5977577;29;20043;-89
2023/08/31 06:33:18;;;;;;;20.58;15.00;;;;;;;-145.48;100.00;64539.38;5977734;29;20132;-89
2023/08/31 06:36:20;;;;;;;19.55;13.90;;;;;;;-145.48;100.00;64539.38;5969126;29;20045;-89
2023/08/31 06:39:22;;;;;;;19.80;14.50;;;;;;;-145.48;100.00;64539.38;5981811;29;20046;-90
2023/08/31 06:42:24;;;;;;;23.60;14.27;;;;;;;-145.48;100.00;64539.38;5980492;29;20054;-90
2023/08/31 06:45:28;;;;;;;20.10;14.05;;;;;;;-145.48;100.00;64539.38;5992335;29;20078;-90
2023/08/31 06:48:29;;;;;;;19.92;13.30;;;;;;;-145.48;100.00;64539.38;5970101;29;20078;-90
2023/08/31 06:51:37;;;;;;;18.27;13.45;;;;;;;-145.48;100.00;64539.38;5980076;29;20082;-90
2023/08/31 06:54:39;;;;;;;21.55;15.07;;;;;;;-145.48;100.00;64539.38;5980426;29;20096;-90
2023/08/31 06:57:41;;;;;;;15.00;12.75;;;;;;;-145.48;100.00;64539.38;5982072;29;20494;-90
2023/08/31 07:00:43;;;;;;;19.63;13.20;;;;;;;-145.48;100.00;64539.38;5975030;29;20042;-90
2023/08/31 07:03:45;;;;;;;18.83;13.50;;;;;;;-145.48;100.00;64539.38;5981111;29;20043;-90
2023/08/31 07:06:47;;;;;;;16.58;12.93;;;;;;;-145.48;100.00;64539.38;5978356;29;20062;-90
2023/08/31 07:09:50;;;;;;;16.70;12.68;;;;;;;-145.48;100.00;64539.38;5980629;29;20055;-90
2023/08/31 07:12:52;;;;;;;20.67;13.90;;;;;;;-145.48;100.00;64539.38;5997438;29;20046;-90
2023/08/31 07:15:54;;;;;;;16.92;13.20;;;;;;;-145.48;100.00;64539.38;5992557;29;20049;-90
2023/08/31 07:18:56;;;;;;;15.55;12.93;;;;;;;-145.48;100.00;64539.38;5980260;29;20086;-90
2023/08/31 07:21:59;;;;;;;19.60;13.10;;;;;;;-145.48;100.00;64539.38;5976141;29;20438;-90
2023/08/31 07:25:03;;;;;;;16.70;11.93;;;;;;;-145.48;100.00;64539.38;5980834;29;20509;-90
2023/08/31 07:28:05;;;;;;;16.00;12.63;;;;;;;-145.48;100.00;64539.38;5985014;29;20054;-90
2023/08/31 07:31:07;;;;;;;13.65;11.63;;;;;;;-145.48;100.00;64539.38;5976304;29;20045;-90
2023/08/31 07:34:09;;;;;;;15.43;12.02;;;;;;;-145.48;100.00;64539.38;5972146;29;20073;-90
2023/08/31 07:37:11;;;;;;;13.20;11.45;;;;;;;-145.48;100.00;64539.38;6000755;29;20042;-90
2023/08/31 07:40:13;;;;;;;16.70;12.07;;;;;;;-145.48;100.00;64539.38;5981687;29;20072;-90
2023/08/31 07:43:15;;;;;;;12.82;10.93;;;;;;;-145.48;100.00;64539.38;5992427;29;20046;-90
2023/08/31 07:46:18;;;;;;;18.05;11.70;;;;;;;-145.48;100.00;64539.38;5980803;29;20058;-89
2023/08/31 07:49:20;;;;;;;13.75;11.50;;;;;;;-145.48;100.00;64539.38;5980133;29;20042;-89
2023/08/31 07:52:22;;;;;;;13.65;10.18;;;;;;;-145.48;100.00;64539.38;5979819;29;20046;-88
2023/08/31 07:55:24;;;;;;;12.15;10.07;;;;;;;-145.48;100.00;64539.38;5972492;29;20050;-90
2023/08/31 07:58:26;;;;;;;14.15;9.80;;;;;;;-145.48;100.00;64539.38;5977472;29;20066;-89
2023/08/31 08:01:28;;;;;;;12.68;9.75;;;;;;;-145.48;100.00;64539.38;5966621;29;20039;-89
2023/08/31 08:04:31;;;;;;;12.82;10.40;;;;;;;-145.48;100.00;64539.38;5970851;29;20151;-89
2023/08/31 08:07:32;;;;;;;12.73;10.40;;;;;;;-145.48;100.00;64539.38;5973375;29;20057;-90
2023/08/31 08:10:34;;;;;;;11.57;9.98;;;;;;;-145.48;100.00;64539.38;5971944;29;20537;-90
2023/08/31 08:13:36;;;;;;;12.05;9.80;;;;;;;-145.48;100.00;64539.38;5973431;29;20117;-90
2023/08/31 08:16:37;;;;;;;10.23;8.95;;;;;;;-145.48;100.00;64539.38;5967419;29;20054;-90
2023/08/31 08:19:39;;;;;;;9.15;8.10;;;;;;;-145.48;100.00;64539.38;5971320;29;20551;-90
2023/08/31 08:22:41;;;;;;;9.63;7.93;;;;;;;-145.48;100.00;64539.38;5979211;29;20043;-89
2023/08/31 08:25:43;;;;;;;9.93;7.57;;;;;;;-145.48;100.00;64539.38;5977111;29;20057;-90
2023/08/31 08:28:45;;;;;;;8.95;6.90;;;;;;;-145.48;100.00;64539.38;5974198;29;20127;-90
2023/08/31 08:31:47;;;;;;;8.23;7.18;;;;;;;-145.48;100.00;64539.38;5976928;29;20049;-89
2023/08/31 08:34:51;;;;;;;9.93;8.05;;;;;;;-145.48;100.00;64539.38;5973093;29;20046;-89
2023/08/31 08:37:52;;;;;;;9.07;7.80;;;;;;;-145.48;100.00;64539.38;5963435;29;20188;-89
2023/08/31 08:40:54;;;;;;;10.35;8.32;;;;;;;-145.48;100.00;64539.38;5971589;29;20150;-89
2023/08/31 08:44:05;;;;;;;11.85;8.38;;;;;;;-145.48;100.00;64539.38;5969762;29;20054;-89
2023/08/31 08:47:07;;;;;;;8.60;7.70;;;;;;;-145.48;100.00;64539.38;5984089;29;20053;-89
2023/08/31 08:50:11;;;;;;;10.40;8.48;;;;;;;-145.48;100.00;64539.38;5964606;29;20044;-88
2023/08/31 08:53:15;;;;;;;8.60;7.70;;;;;;;-145.48;100.00;64539.38;5972214;29;20038;-88
2023/08/31 08:56:17;;;;;;;13.45;8.88;;;;;;;-145.48;100.00;64539.38;5985098;29;20058;-88
2023/08/31 08:59:19;;;;;;;8.95;7.82;;;;;;;-145.48;100.00;64539.38;5972937;29;20208;-89
2023/08/31 09:02:22;;;;;;;12.13;8.00;;;;;;;-145.48;100.00;64539.38;5974368;29;20520;-88
2023/08/31 09:05:24;;;;;;;10.23;8.35;;;;;;;-145.48;100.00;64539.38;5983081;29;20614;-89
2023/08/31 09:08:28;;;;;;;9.02;8.13;;;;;;;-145.48;100.00;64539.38;5986375;29;20062;-89
2023/08/31 09:11:30;;;;;;;10.00;8.38;;;;;;;-145.48;100.00;64539.38;5972471;29;20096;-89
2023/08/31 09:14:32;;;;;;;9.80;8.27;;;;;;;-145.48;100.00;64539.38;5980785;29;20495;-89
2023/08/31 09:17:39;;;;;;;8.35;6.88;;;;;;;-145.48;100.00;64539.38;5976308;29;20038;-89
2023/08/31 09:20:47;;;;;;;9.93;7.43;;;;;;;-145.48;100.00;64539.38;5983430;29;20053;-89
2023/08/31 09:23:58;;;;;;;9.75;8.63;;;;;;;-145.48;100.00;64539.38;5981446;29;20042;-89
2023/08/31 09:27:00;;;;;;;10.35;8.82;;;;;;;-145.48;100.00;64539.38;5979282;29;20077;-89
2023/08/31 09:30:03;;;;;;;9.73;8.52;;;;;;;-145.48;100.00;64539.38;5976559;29;20435;-89
2023/08/31 09:33:05;;;;;;;8.27;7.45;;;;;;;-145.48;100.00;64539.38;5975713;29;20056;-88
2023/08/31 09:36:08;;;;;;;8.27;7.38;;;;;;;-145.48;100.00;64539.38;5979503;29;20039;-89
2023/08/31 09:39:11;;;;;;;7.68;6.93;;;;;;;-145.48;100.00;64539.38;5978614;29;20128;-89
2023/08/31 09:42:13;;;;;;;7.10;6.40;;;;;;;-145.48;100.00;64539.38;5975969;29;20654;-91
2023/08/31 09:45:18;;;;;;;8.68;7.28;;;;;;;-145.48;100.00;64539.38;5959541;29;20137;-91
2023/08/31 09:48:26;;;;;;;8.23;6.13;;;;;;;-145.48;100.00;64539.38;5977182;29;20042;-89
2023/08/31 09:51:30;;;;;;;9.05;6.00;;;;;;;-145.48;100.00;64539.38;5980417;29;20050;-90
2023/08/31 09:54:34;;;;;;;8.00;7.20;;;;;;;-145.48;100.00;64539.38;5971140;29;20073;-90
2023/08/31 09:57:37;;;;;;;8.60;6.55;;;;;;;-145.48;100.00;64539.38;5967169;29;20080;-90
2023/08/31 10:00:50;;;;;;;7.00;6.03;;;;;;;-145.48;100.00;64539.38;5963887;29;20047;-89
2023/08/31 10:03:52;;;;;;;6.70;5.97;;;;;;;-145.48;100.00;64539.38;5974438;29;20042;-90
2023/08/31 10:06:54;;;;;;;8.00;5.97;;;;;;;-145.48;100.00;64539.38;5977130;29;20051;-89
2023/08/31 10:09:57;;;;;;;7.15;6.22;;;;;;;-145.48;100.00;64539.38;5991818;29;20529;-90
2023/08/31 10:13:01;;;;;;;7.10;6.30;;;;;;;-145.48;100.00;64539.38;5990768;29;20513;-87
2023/08/31 10:16:04;;;;;;;7.30;6.60;;;;;;;-145.48;100.00;64539.38;5988750;29;20057;-89
2023/08/31 10:19:06;;;;;;;7.70;6.13;;;;;;;-145.48;100.00;64539.38;5980077;29;20135;-90
2023/08/31 10:22:08;;;;;;;6.00;5.40;;;;;;;-145.48;100.00;64539.38;5971131;29;20057;-89
2023/08/31 10:25:11;;;;;;;7.32;6.25;;;;;;;-145.48;100.00;64539.38;5969692;29;20050;-91
2023/08/31 10:28:22;;;;;;;7.70;5.97;;;;;;;-145.48;100.00;64539.38;5984168;29;20061;-91
2023/08/31 10:31:28;;;;;;;9.85;6.35;;;;;;;-145.48;100.00;64539.38;5973684;29;20072;-90
2023/08/31 10:34:37;;;;;;;6.70;4.70;;;;;;;-145.48;100.00;64539.38;5989740;29;20047;-93
2023/08/31 10:37:40;;;;;;;6.03;5.05;;;;;;;-145.48;100.00;64539.38;5957903;29;20066;-89
2023/08/31 10:40:59;;;;;;;5.85;5.10;;;;;;;-145.48;100.00;64539.38;5970148;29;20061;-89
2023/08/31 10:44:01;;;;;;;5.38;4.53;;;;;;;-145.48;100.00;64539.38;5980525;29;20091;-89
2023/08/31 10:47:05;;;;;;;7.22;4.85;;;;;;;-145.48;100.00;64539.38;5987333;29;20055;-91
2023/08/31 10:50:19;;;;;;;5.82;4.40;;;;;;;-145.48;100.00;64539.38;5976009;29;20060;-90
2023/08/31 10:53:28;;;;;;;8.05;4.47;;;;;;;-145.48;100.00;64539.38;5981479;29;20561;-90
2023/08/31 10:56:31;;;;;;;6.38;4.72;;;;;;;-145.48;100.00;64539.38;5973319;29;20050;-90
2023/08/31 10:59:42;;;;;;;8.25;4.60;;;;;;;-145.48;100.00;64539.38;5979331;29;20061;-90
2023/08/31 11:02:45;;;;;;;5.65;4.70;;;;;;;-145.48;100.00;64539.38;5976918;29;20053;-89
2023/08/31 11:05:54;;;;;;;6.28;4.00;;;;;;;-145.48;100.00;64539.38;5975637;29;20133;-89
2023/08/31 11:08:56;;;;;;;5.90;5.25;;;;;;;-145.48;100.00;64539.38;5978506;29;20110;-89
2023/08/31 11:11:58;;;;;;;6.10;4.65;;;;;;;-145.48;100.00;64539.38;5976984;29;20996;-88
2023/08/31 11:15:00;;;;;;;5.45;4.70;;;;;;;-145.48;100.00;64539.38;5982774;29;20046;-88
2023/08/31 11:18:02;;;;;;;5.78;5.18;;;;;;;-145.48;100.00;64539.38;5983928;29;20057;-88
2023/08/31 11:21:05;;;;;;;8.23;5.45;;;;;;;-145.48;100.00;64539.38;5980528;29;20042;-88
2023/08/31 11:24:08;;;;;;;8.32;5.43;;;;;;;-145.48;100.00;64539.38;5980246;29;20047;-88
2023/08/31 11:27:10;;;;;;;5.40;4.90;;;;;;;-145.48;100.00;64539.38;5983708;29;20050;-88
2023/08/31 11:30:15;;;;;;;4.45;3.63;;;;;;;-145.48;100.00;64539.38;5977268;29;20061;-88
2023/08/31 11:33:17;;;;;;;4.80;4.30;;;;;;;-145.48;100.00;64539.38;5973773;29;20046;-88
2023/08/31 11:36:19;;;;;;;4.85;4.35;;;;;;;-145.48;100.00;64539.38;5966113;29;20228;-88
2023/08/31 11:39:22;;;;;;;5.50;4.18;;;;;;;-145.48;100.00;64539.38;5963034;29;20414;-89
2023/08/31 11:42:24;;;;;;;7.97;4.47;;;;;;;-145.48;100.00;64539.38;5977155;29;20053;-88
2023/08/31 11:45:28;;;;;;;5.45;2.97;;;;;;;-145.48;100.00;64539.38;5976437;29;20249;-87
2023/08/31 11:48:31;;;;;;;5.13;3.90;;;;;;;-145.48;100.00;64539.38;5991885;29;20042;-88
2023/08/31 11:51:34;;;;;;;3.50;2.67;;;;;;;-145.48;100.00;64539.38;5987566;29;20062;-88
2023/08/31 11:54:42;;;;;;;4.03;2.65;;;;;;;-145.48;100.00;64539.38;5970260;29;20046;-88
2023/08/31 11:57:54;;;;;;;3.60;2.55;;;;;;;-145.48;100.00;64539.38;5978491;29;20038;-88
2023/08/31 12:00:58;;;;;;;3.85;3.17;;;;;;;-145.48;100.00;64539.38;5984999;29;20057;-88
2023/08/31 12:04:00;;;;;;;4.07;2.85;;;;;;;-145.48;100.00;64539.38;5978381;29;20058;-89
2023/08/31 12:07:06;;;;;;;4.80;2.47;;;;;;;-145.48;100.00;64539.38;5962573;29;20085;-88
2023/08/31 12:10:09;;;;;;;3.60;2.83;;;;;;;-145.48;100.00;64539.38;5981080;29;20051;-87
2023/08/31 12:13:18;;;;;;;2.80;2.53;;;;;;;-145.48;100.00;64539.38;5987095;29;20118;-88
2023/08/31 12:16:19;;;;;;;4.15;2.60;;;;;;;-145.48;100.00;64539.38;5978937;29;20073;-88
2023/08/31 12:19:28;;;;;;;3.72;2.75;;;;;;;-145.48;100.00;64539.38;5993678;29;20047;-88
2023/08/31 12:22:30;;;;;;;4.38;2.75;;;;;;;-145.48;100.00;64539.38;5983618;29;20437;-89
2023/08/31 12:25:32;;;;;;;2.80;2.42;;;;;;;-145.48;100.00;64539.38;5975759;29;20489;-88
2023/08/31 12:28:34;;;;;;;3.08;2.78;;;;;;;-145.48;100.00;64539.38;5989592;29;20045;-88
2023/08/31 12:31:36;;;;;;;4.28;2.55;;;;;;;-145.48;100.00;64539.38;5974619;29;20054;-88
2023/08/31 12:34:39;;;;;;;3.42;2.65;;;;;;;-145.48;100.00;64539.38;5982296;29;20512;-87
2023/08/31 12:37:41;;;;;;;3.55;2.50;;;;;;;-145.48;100.00;64539.38;5982015;29;20634;-88
2023/08/31 12:40:43;;;;;;;2.30;2.10;;;;;;;-145.48;100.00;64539.38;5988442;29;20720;-89
2023/08/31 12:43:44;;;;;;;2.47;1.63;;;;;;;-145.48;100.00;64539.38;5982594;29;20042;-88
2023/08/31 12:46:47;;;;;;;1.98;1.63;;;;;;;-145.48;100.00;64539.38;5972294;29;20502;-87
2023/08/31 12:49:49;;;;;;;2.00;1.25;;;;;;;-145.48;100.00;64539.38;5976268;29;20125;-89
2023/08/31 12:52:51;;;;;;;7.45;1.73;;;;;;;-145.48;100.00;64539.38;5975932;29;20086;-88
2023/08/31 12:55:54;;;;;;;1.67;1.10;;;;;;;-145.48;100.00;64539.38;5977711;29;20050;-90
2023/08/31 12:58:56;;;;;;;1.77;1.20;;;;;;;-145.48;100.00;64539.38;5981754;29;20792;-89
2023/08/31 13:01:57;;;;;;;1.77;1.00;;;;;;;-145.48;100.00;64539.38;5972287;29;20395;-89
2023/08/31 13:04:59;;;;;;;3.45;1.10;;;;;;;-145.48;100.00;64539.38;5980158;29;20393;-89
2023/08/31 13:08:01;;;;;;;2.88;1.08;;;;;;;-145.48;100.00;64539.38;5976750;29;20047;-88
2023/08/31 13:11:04;;;;;;;1.15;1.05;;;;;;;-145.48;100.00;64539.38;5979647;29;20456;-88
2023/08/31 13:14:06;;;;;;;2.05;1.30;;;;;;;-145.48;100.00;64539.38;5980828;29;20054;-88
2023/08/31 13:17:08;;;;;;;2.25;1.20;;;;;;;-145.48;100.00;64539.38;5980129;29;20043;-88
2023/08/31 13:20:12;;;;;;;1.45;1.15;;;;;;;-145.48;100.00;64539.38;5978131;29;20053;-90
2023/08/31 13:23:13;;;;;;;2.45;1.05;;;;;;;-145.48;100.00;64539.38;5972562;29;20057;-89
2023/08/31 13:26:15;;;;;;;0.55;0.50;;;;;;;-145.48;100.00;64539.38;5978864;29;20065;-89
2023/08/31 13:29:17;;;;;;;1.50;0.60;;;;;;;-145.48;100.00;64539.38;5966745;29;20502;-89
2023/08/31 13:32:19;;;;;;;1.67;0.65;;;;;;;-145.48;100.00;64539.38;5974751;29;20103;-88
2023/08/31 13:35:21;;;;;;;1.52;0.60;;;;;;;-145.48;100.00;64539.38;5980702;29;20819;-88
2023/08/31 13:38:23;;;;;;;3.15;1.10;;;;;;;-145.48;100.00;64539.38;5975365;29;20050;-89
2023/08/31 13:41:25;;;;;;;1.15;0.70;;;;;;;-145.48;100.00;64539.38;5971609;29;20525;-89
2023/08/31 13:44:26;;;;;;;2.15;0.73;;;;;;;-145.48;100.00;64539.38;5973049;29;20058;-89
2023/08/31 13:47:28;;;;;;;1.27;0.55;;;;;;;-145.48;100.00;64539.38;5972441;29;20575;-87